Time;durP1;ratioP1;P1;durP2;ratioP2;P2;SDS_P1;SDS_P2;PMS_P1;PMS_P2;Temp;Humidity;BMP_temperature;BMP_pressure;BME280_temperature;BME280_humidity;BME280_pressure;Samples;Min_cycle;Max_cycle;Signal;HPM_P1;HPM_P2
2021/12/18 00:00:30;;;;;;;17.42;2.10;;;6.50;99.90;;;;;;5080579;28;20052;-60
2021/12/18 00:02:56;;;;;;;16.95;2.25;;;6.50;99.90;;;;;;5079644;28;20399;-60
2021/12/18 00:05:22;;;;;;;17.20;1.95;;;6.40;99.90;;;;;;5080406;28;20464;-60
2021/12/18 00:07:48;;;;;;;8.98;1.75;;;6.40;99.90;;;;;;5079652;28;20047;-60
2021/12/18 00:10:14;;;;;;;13.27;1.60;;;6.30;99.90;;;;;;5078686;28;20126;-60
2021/12/18 00:12:47;;;;;;;11.55;1.40;;;6.40;99.90;;;;;;5080134;28;20047;-60
2021/12/18 00:15:13;;;;;;;13.60;1.95;;;6.40;99.90;;;;;;5079379;28;20132;-59
2021/12/18 00:17:42;;;;;;;15.90;2.05;;;6.40;99.90;;;;;;5079901;28;20048;-59
2021/12/18 00:20:08;;;;;;;19.70;1.65;;;6.40;99.90;;;;;;5080017;28;20049;-60
2021/12/18 00:22:35;;;;;;;13.45;1.55;;;6.40;99.90;;;;;;5080600;28;20085;-60
2021/12/18 00:25:01;;;;;;;9.55;1.10;;;6.30;99.90;;;;;;5062083;28;20474;-60
2021/12/18 00:27:27;;;;;;;13.70;1.58;;;6.40;99.90;;;;;;5079211;28;20072;-60
2021/12/18 00:29:52;;;;;;;11.15;1.80;;;6.40;99.90;;;;;;5080614;28;20041;-60
2021/12/18 00:32:18;;;;;;;6.28;1.13;;;6.40;99.90;;;;;;5078516;28;20044;-59
2021/12/18 00:34:44;;;;;;;8.32;1.60;;;6.50;99.90;;;;;;5079508;28;20106;-60
2021/12/18 00:37:10;;;;;;;8.80;2.08;;;6.50;99.90;;;;;;5080117;28;20053;-60
2021/12/18 00:39:42;;;;;;;6.93;1.83;;;6.50;99.90;;;;;;5079297;28;20052;-60
2021/12/18 00:42:22;;;;;;;5.13;1.40;;;6.50;99.90;;;;;;5078282;28;20048;-60
2021/12/18 00:44:48;;;;;;;10.10;1.50;;;6.50;99.90;;;;;;5078777;28;20416;-60
2021/12/18 00:47:14;;;;;;;5.97;1.40;;;6.40;99.90;;;;;;5062160;28;20040;-60
2021/12/18 00:49:40;;;;;;;11.30;1.45;;;6.40;99.90;;;;;;5061901;28;20082;-60
2021/12/18 00:52:06;;;;;;;6.32;1.55;;;6.50;99.90;;;;;;5096826;28;20853;-60
2021/12/18 00:54:32;;;;;;;10.95;1.48;;;6.50;99.90;;;;;;5090740;28;20049;-60
2021/12/18 00:56:58;;;;;;;6.03;1.23;;;6.60;99.90;;;;;;5080104;28;20047;-60
2021/12/18 00:59:24;;;;;;;10.43;1.45;;;6.60;99.90;;;;;;5078112;28;20468;-60
2021/12/18 01:01:50;;;;;;;8.52;1.70;;;6.60;99.90;;;;;;5079744;28;20057;-60
2021/12/18 01:04:17;;;;;;;7.40;1.40;;;6.50;99.90;;;;;;5078385;28;20056;-59
2021/12/18 01:06:43;;;;;;;8.43;1.40;;;6.40;99.90;;;;;;5078305;28;20598;-59
2021/12/18 01:09:08;;;;;;;7.18;1.55;;;6.40;99.90;;;;;;5080151;28;20045;-59
2021/12/18 01:11:41;;;;;;;7.10;1.02;;;6.50;99.90;;;;;;5079388;28;20037;-60
2021/12/18 01:14:28;;;;;;;8.18;1.10;;;6.40;99.90;;;;;;5079277;28;20087;-60
2021/12/18 01:24:50;;;;;;;15.05;1.48;;;6.30;99.90;;;;;;5079074;28;20104;-59
2021/12/18 01:27:15;;;;;;;9.73;1.33;;;6.30;99.90;;;;;;5079090;28;20504;-59
2021/12/18 01:29:41;;;;;;;12.40;1.88;;;6.30;99.90;;;;;;5078925;28;20041;-59
2021/12/18 01:32:08;;;;;;;13.38;1.92;;;6.40;99.90;;;;;;5079034;28;20043;-60
2021/12/18 01:34:35;;;;;;;15.40;2.20;;;6.40;99.90;;;;;;5079644;28;20048;-59
2021/12/18 01:37:01;;;;;;;11.85;2.10;;;6.50;99.90;;;;;;5077315;28;20346;-60
2021/12/18 01:39:27;;;;;;;10.70;2.20;;;6.50;99.90;;;;;;5079420;28;20043;-59
2021/12/18 01:42:19;;;;;;;14.88;2.22;;;6.50;99.90;;;;;;5078530;28;20068;-60
2021/12/18 01:45:10;;;;;;;15.10;2.30;;;6.40;99.90;;;;;;5076542;28;20612;-60
2021/12/18 01:53:07;;;;;;;5.72;1.42;;;6.40;99.90;;;;;;5097990;28;20592;-60
2021/12/18 01:55:35;;;;;;;5.25;1.30;;;6.40;99.90;;;;;;5082996;28;20055;-60
2021/12/18 01:58:02;;;;;;;4.15;1.48;;;6.40;99.90;;;;;;5078301;28;20055;-60
2021/12/18 02:00:34;;;;;;;6.55;1.40;;;6.40;99.90;;;;;;5079181;28;20599;-60
2021/12/18 02:03:00;;;;;;;4.07;1.25;;;6.40;99.90;;;;;;5078388;28;20101;-59
2021/12/18 02:05:26;;;;;;;3.75;1.10;;;6.40;99.90;;;;;;5078523;28;20048;-59
2021/12/18 02:07:52;;;;;;;6.20;0.85;;;6.40;99.90;;;;;;5077802;28;20064;-60
2021/12/18 02:10:21;;;;;;;10.15;1.23;;;6.30;99.90;;;;;;5078523;28;20044;-59
2021/12/18 02:13:02;;;;;;;11.63;1.27;;;6.30;99.90;;;;;;5077038;28;20044;-59
2021/12/18 02:21:06;;;;;;;8.55;1.10;;;6.40;99.90;;;;;;5077992;28;20496;-60
2021/12/18 02:23:37;;;;;;;14.07;1.42;;;6.40;99.90;;;;;;5078243;28;20052;-60
2021/12/18 02:26:03;;;;;;;7.55;1.13;;;6.40;99.90;;;;;;5077297;28;20043;-59
2021/12/18 02:28:29;;;;;;;7.10;1.02;;;6.40;99.90;;;;;;5076619;28;20041;-60
2021/12/18 02:30:57;;;;;;;16.15;1.40;;;6.40;99.90;;;;;;5077166;28;20119;-60
2021/12/18 02:33:24;;;;;;;6.82;1.15;;;6.40;99.90;;;;;;5077907;28;20055;-59
2021/12/18 02:35:53;;;;;;;13.02;1.25;;;6.50;99.90;;;;;;5078341;28;20044;-60
2021/12/18 02:38:33;;;;;;;8.73;1.08;;;6.50;99.90;;;;;;5078063;28;20104;-60
2021/12/18 02:41:56;;;;;;;9.10;1.17;;;6.40;99.90;;;;;;5076586;28;20045;-60
2021/12/18 02:43:46;;;;;;;19.85;1.40;;;6.50;99.90;;;;;;5073699;28;20059;-60
2021/12/18 02:46:17;;;;;;;10.07;1.00;;;6.40;99.90;;;;;;5077472;28;20040;-60
2021/12/18 02:48:45;;;;;;;25.55;1.55;;;6.50;99.90;;;;;;5076513;28;20052;-60
2021/12/18 02:51:11;;;;;;;10.23;1.25;;;6.50;99.90;;;;;;5088451;28;20059;-60
2021/12/18 02:53:42;;;;;;;4.18;1.15;;;6.50;99.90;;;;;;5097709;28;20040;-59
2021/12/18 02:56:10;;;;;;;4.90;1.00;;;6.40;99.90;;;;;;5078089;28;20076;-60
2021/12/18 02:58:38;;;;;;;4.93;1.00;;;6.50;99.90;;;;;;5075964;28;20110;-60
2021/12/18 03:01:05;;;;;;;6.22;2.10;;;6.50;99.90;;;;;;5076983;28;20044;-60
2021/12/18 03:03:37;;;;;;;8.40;1.00;;;6.50;99.90;;;;;;5077223;28;20045;-60
2021/12/18 03:06:21;;;;;;;6.93;1.27;;;6.40;99.90;;;;;;5077925;28;20045;-59
2021/12/18 03:25:18;;;;;;;8.00;1.25;;;6.60;99.90;;;;;;5076599;28;20096;-60
2021/12/18 03:27:45;;;;;;;8.65;1.35;;;6.60;99.90;;;;;;5078037;28;20052;-60
2021/12/18 03:30:11;;;;;;;9.35;1.30;;;6.60;99.90;;;;;;5078443;28;20076;-60
2021/12/18 03:32:37;;;;;;;7.90;1.50;;;6.60;99.90;;;;;;5077720;28;20048;-60
2021/12/18 03:35:04;;;;;;;7.20;1.25;;;6.60;99.90;;;;;;5076936;28;20104;-60
2021/12/18 03:37:30;;;;;;;7.82;1.45;;;6.50;99.90;;;;;;5076210;28;20079;-60
2021/12/18 03:39:56;;;;;;;9.68;1.70;;;6.60;99.90;;;;;;5077926;28;20044;-60
2021/12/18 03:42:22;;;;;;;8.07;1.58;;;6.60;99.90;;;;;;5077444;28;20143;-60
2021/12/18 03:44:48;;;;;;;15.25;1.67;;;6.70;99.90;;;;;;5077600;28;20040;-60
2021/12/18 03:47:13;;;;;;;7.43;1.50;;;6.70;99.90;;;;;;5078090;28;20045;-60
2021/12/18 03:49:39;;;;;;;5.40;1.40;;;6.60;99.90;;;;;;5077584;28;20041;-60
2021/12/18 03:52:06;;;;;;;7.40;1.45;;;6.70;99.90;;;;;;5095753;28;20132;-60
2021/12/18 03:54:32;;;;;;;8.63;2.00;;;6.70;99.90;;;;;;5089380;28;20100;-60
2021/12/18 03:56:58;;;;;;;6.35;1.73;;;6.70;99.90;;;;;;5077903;28;20043;-60
2021/12/18 03:59:24;;;;;;;6.10;1.20;;;6.70;99.90;;;;;;5076949;28;20059;-61
2021/12/18 04:01:52;;;;;;;6.22;1.65;;;6.60;99.90;;;;;;5077864;28;20055;-60
2021/12/18 04:04:18;;;;;;;6.28;1.50;;;6.80;99.90;;;;;;5078058;28;20791;-60
2021/12/18 04:06:45;;;;;;;7.60;1.60;;;6.80;99.90;;;;;;5078770;28;20032;-60
2021/12/18 04:09:11;;;;;;;6.93;1.50;;;6.70;99.90;;;;;;5081341;28;20073;-60
2021/12/18 04:11:41;;;;;;;6.75;1.88;;;6.80;99.90;;;;;;5080890;28;20079;-60
2021/12/18 04:14:07;;;;;;;6.22;1.50;;;6.80;99.90;;;;;;5080768;28;20376;-60
2021/12/18 04:16:34;;;;;;;8.38;2.17;;;6.80;99.90;;;;;;5080745;28;20052;-60
2021/12/18 04:19:03;;;;;;;6.72;2.00;;;6.80;99.90;;;;;;5081242;28;20056;-60
2021/12/18 04:21:33;;;;;;;7.70;1.90;;;6.90;99.90;;;;;;5081311;28;20501;-60
2021/12/18 04:23:59;;;;;;;6.65;2.25;;;6.90;99.90;;;;;;5080495;28;20087;-60
2021/12/18 04:26:25;;;;;;;7.80;2.13;;;6.90;99.90;;;;;;5080000;28;20420;-59
2021/12/18 04:28:51;;;;;;;9.63;2.63;;;6.90;99.90;;;;;;5080618;28;20852;-60
2021/12/18 04:31:17;;;;;;;10.45;2.90;;;6.90;99.90;;;;;;5080839;28;20040;-60
2021/12/18 04:33:43;;;;;;;7.97;2.33;;;6.80;99.90;;;;;;5079160;28;20068;-59
2021/12/18 04:36:09;;;;;;;11.00;3.05;;;6.90;99.90;;;;;;5080715;28;20093;-60
2021/12/18 04:38:35;;;;;;;10.88;2.80;;;6.90;99.90;;;;;;5079786;28;20682;-60
2021/12/18 04:41:03;;;;;;;11.07;3.13;;;6.90;99.90;;;;;;5080525;28;20104;-60
2021/12/18 04:43:30;;;;;;;14.52;3.55;;;6.90;99.90;;;;;;5080561;28;20579;-60
2021/12/18 04:45:56;;;;;;;13.63;4.70;;;6.90;99.90;;;;;;5080140;28;20108;-60
2021/12/18 04:48:21;;;;;;;11.40;3.53;;;6.90;99.90;;;;;;5080751;28;20628;-60
2021/12/18 04:50:47;;;;;;;12.25;3.78;;;7.00;99.90;;;;;;5085713;28;20047;-60
2021/12/18 04:53:13;;;;;;;14.10;4.20;;;7.00;99.90;;;;;;5100929;28;20431;-60
2021/12/18 04:55:39;;;;;;;11.65;4.18;;;7.00;99.90;;;;;;5082890;28;20047;-60
2021/12/18 04:58:05;;;;;;;13.80;4.30;;;7.10;99.90;;;;;;5080184;28;20041;-60
2021/12/18 05:00:38;;;;;;;14.13;4.03;;;7.10;99.90;;;;;;5080298;28;20083;-60
2021/12/18 05:03:07;;;;;;;11.80;3.95;;;7.10;99.90;;;;;;5078266;28;20481;-60
2021/12/18 05:05:34;;;;;;;15.38;4.80;;;7.10;99.90;;;;;;5078951;28;20689;-60
2021/12/18 05:08:01;;;;;;;12.57;4.40;;;7.10;99.90;;;;;;5079351;28;20103;-60
2021/12/18 05:10:27;;;;;;;12.73;4.30;;;7.10;99.90;;;;;;5079709;28;20043;-61
2021/12/18 05:12:53;;;;;;;14.45;4.57;;;7.10;99.90;;;;;;5079924;28;20048;-60
2021/12/18 05:15:18;;;;;;;15.77;5.18;;;7.10;99.90;;;;;;5079774;28;20055;-60
2021/12/18 05:17:44;;;;;;;13.35;3.97;;;7.20;99.90;;;;;;5078572;28;20045;-60
2021/12/18 05:20:11;;;;;;;12.02;3.95;;;7.10;99.90;;;;;;5078018;28;20055;-60
2021/12/18 05:22:37;;;;;;;12.88;4.50;;;7.20;99.90;;;;;;5079821;28;20458;-60
2021/12/18 05:25:03;;;;;;;10.88;4.30;;;7.20;99.90;;;;;;5078262;28;20435;-60
2021/12/18 05:27:29;;;;;;;12.15;3.97;;;7.20;99.90;;;;;;5079738;28;20067;-60
2021/12/18 05:29:55;;;;;;;15.50;3.88;;;7.20;99.90;;;;;;5079814;28;20040;-59
2021/12/18 05:32:21;;;;;;;12.95;3.72;;;7.20;99.90;;;;;;5079261;28;20047;-60
2021/12/18 05:34:47;;;;;;;11.35;3.50;;;7.20;99.90;;;;;;5079822;28;20036;-60
2021/12/18 05:37:30;;;;;;;12.23;3.83;;;7.10;99.90;;;;;;5078841;28;20044;-59
2021/12/18 05:39:56;;;;;;;15.07;3.60;;;7.20;99.90;;;;;;5079603;28;21051;-60
2021/12/18 05:42:22;;;;;;;13.18;3.80;;;7.20;99.90;;;;;;5077841;28;20136;-60
2021/12/18 05:44:48;;;;;;;11.77;3.70;;;7.20;99.90;;;;;;5079069;28;20238;-60
2021/12/18 05:47:14;;;;;;;13.02;3.60;;;7.20;99.90;;;;;;5061779;28;20434;-60
2021/12/18 05:49:40;;;;;;;13.43;3.80;;;7.20;99.90;;;;;;5078869;28;20052;-61
2021/12/18 05:52:07;;;;;;;10.73;3.88;;;7.30;99.90;;;;;;5097595;28;20056;-60
2021/12/18 05:54:36;;;;;;;11.75;3.35;;;7.20;99.90;;;;;;5088702;28;20044;-60
2021/12/18 05:57:06;;;;;;;11.30;3.22;;;7.30;99.90;;;;;;5079044;28;20421;-60
2021/12/18 05:59:33;;;;;;;11.10;2.97;;;7.30;99.90;;;;;;5078655;28;20097;-60
2021/12/18 06:01:59;;;;;;;11.45;3.63;;;7.20;99.90;;;;;;5060785;28;20052;-60
2021/12/18 06:04:25;;;;;;;13.15;3.58;;;7.30;99.90;;;;;;5079220;28;20052;-60
2021/12/18 06:06:51;;;;;;;12.55;3.97;;;7.30;99.90;;;;;;5060141;28;20049;-60
2021/12/18 06:09:16;;;;;;;12.23;3.60;;;7.30;99.90;;;;;;5079255;28;20058;-60
2021/12/18 06:11:42;;;;;;;10.07;3.45;;;7.30;99.90;;;;;;5078221;28;20127;-60
2021/12/18 06:14:08;;;;;;;12.55;3.78;;;7.30;99.90;;;;;;5076911;28;20068;-60
2021/12/18 06:16:34;;;;;;;13.07;3.80;;;7.30;99.90;;;;;;5077074;28;20048;-60
2021/12/18 06:19:00;;;;;;;15.35;3.65;;;7.30;99.90;;;;;;5078427;28;20037;-60
2021/12/18 06:21:26;;;;;;;11.65;3.95;;;7.30;99.90;;;;;;5078793;28;20058;-60
2021/12/18 06:23:55;;;;;;;14.55;4.28;;;7.30;99.90;;;;;;5078237;28;20044;-60
2021/12/18 06:26:23;;;;;;;12.55;4.47;;;7.40;99.90;;;;;;5079254;28;20058;-59
2021/12/18 06:28:49;;;;;;;11.07;2.97;;;7.40;99.90;;;;;;5076117;28;20480;-60
2021/12/18 06:31:14;;;;;;;10.50;3.47;;;7.40;99.90;;;;;;5078283;28;20499;-60
2021/12/18 06:33:40;;;;;;;11.32;3.70;;;7.40;99.90;;;;;;5060000;28;20044;-60
2021/12/18 06:36:06;;;;;;;15.15;4.47;;;7.50;99.90;;;;;;5060177;28;20076;-59
2021/12/18 06:38:32;;;;;;;13.70;3.38;;;7.50;99.90;;;;;;5077076;28;20048;-60
2021/12/18 06:40:58;;;;;;;12.45;3.72;;;7.40;99.90;;;;;;5078040;28;20048;-60
2021/12/18 06:43:23;;;;;;;13.55;3.88;;;7.40;99.90;;;;;;5078036;28;20145;-60
2021/12/18 06:45:49;;;;;;;12.48;3.90;;;7.50;99.90;;;;;;5077782;28;20054;-65
2021/12/18 06:48:15;;;;;;;14.63;4.18;;;7.40;99.90;;;;;;5076772;28;20053;-59
2021/12/18 06:50:41;;;;;;;13.88;3.75;;;7.50;99.90;;;;;;5082407;28;20108;-60
2021/12/18 06:53:06;;;;;;;13.00;4.15;;;7.40;99.90;;;;;;5098369;28;20082;-60
2021/12/18 06:55:33;;;;;;;14.48;3.90;;;7.50;99.90;;;;;;5081045;28;20128;-62
2021/12/18 06:58:00;;;;;;;11.30;3.47;;;7.50;99.90;;;;;;5077733;28;20040;-59
2021/12/18 07:00:28;;;;;;;14.95;4.20;;;7.50;99.90;;;;;;5077076;28;20049;-60
2021/12/18 07:02:54;;;;;;;10.60;3.63;;;7.40;99.90;;;;;;5077748;28;20044;-60
2021/12/18 07:05:20;;;;;;;14.65;3.83;;;7.50;99.90;;;;;;5076820;28;20049;-60
2021/12/18 07:07:46;;;;;;;16.02;4.00;;;7.50;99.90;;;;;;5075984;28;20059;-60
2021/12/18 07:10:14;;;;;;;11.00;3.88;;;7.50;99.90;;;;;;5043484;28;20040;-60
2021/12/18 07:12:41;;;;;;;15.48;3.45;;;7.50;99.90;;;;;;5076401;28;20044;-59
2021/12/18 07:15:09;;;;;;;12.48;3.42;;;7.60;99.90;;;;;;5078001;28;20044;-60
2021/12/18 07:17:35;;;;;;;15.13;4.10;;;7.60;99.90;;;;;;5077042;28;20047;-59
2021/12/18 07:20:01;;;;;;;11.90;3.65;;;7.60;99.90;;;;;;5076312;28;20052;-59
2021/12/18 07:22:27;;;;;;;9.80;3.63;;;7.60;99.90;;;;;;5078005;28;20033;-60
2021/12/18 07:24:52;;;;;;;10.32;3.13;;;7.70;99.90;;;;;;5077038;28;20052;-60
2021/12/18 07:27:18;;;;;;;13.23;3.38;;;7.70;99.90;;;;;;5076208;28;20044;-60
2021/12/18 07:29:44;;;;;;;8.52;2.67;;;7.70;99.90;;;;;;5076564;28;20047;-60
2021/12/18 07:32:10;;;;;;;10.93;3.03;;;7.70;99.90;;;;;;5076385;28;20054;-60
2021/12/18 07:34:36;;;;;;;14.25;3.72;;;7.70;99.90;;;;;;5078175;28;20091;-59
2021/12/18 07:37:02;;;;;;;9.45;3.00;;;7.80;99.90;;;;;;5059682;28;20120;-60
2021/12/18 07:39:28;;;;;;;10.20;2.78;;;7.80;99.90;;;;;;5077907;28;20088;-61
2021/12/18 07:41:54;;;;;;;9.95;2.65;;;7.80;99.90;;;;;;5045681;28;20079;-60
2021/12/18 07:44:20;;;;;;;9.05;2.60;;;7.80;99.90;;;;;;5081086;28;20048;-60
2021/12/18 07:46:45;;;;;;;11.98;3.00;;;7.80;99.90;;;;;;5080013;28;20044;-60
2021/12/18 07:49:12;;;;;;;11.73;2.90;;;7.90;99.90;;;;;;5079920;28;20102;-60
2021/12/18 07:51:38;;;;;;;12.30;3.15;;;7.90;99.90;;;;;;5096199;28;20166;-60
2021/12/18 07:54:06;;;;;;;11.43;3.45;;;7.90;99.90;;;;;;5094708;28;20383;-60
2021/12/18 07:56:32;;;;;;;11.00;2.95;;;7.90;99.90;;;;;;5081546;28;20425;-59
2021/12/18 07:58:58;;;;;;;9.85;2.60;;;7.90;99.90;;;;;;5079245;28;20116;-60
2021/12/18 08:01:24;;;;;;;11.45;3.95;;;7.90;99.90;;;;;;5080031;28;20044;-59
2021/12/18 08:03:50;;;;;;;11.25;2.60;;;7.90;99.90;;;;;;5080880;28;20137;-60
2021/12/18 08:06:16;;;;;;;9.38;2.88;;;7.90;99.90;;;;;;5081045;28;20044;-59
2021/12/18 08:08:42;;;;;;;14.93;3.97;;;7.90;99.90;;;;;;5081508;28;20040;-59
2021/12/18 08:11:08;;;;;;;10.13;2.88;;;7.90;99.90;;;;;;5080661;28;20053;-59
2021/12/18 08:13:34;;;;;;;13.85;3.20;;;7.90;99.90;;;;;;5081170;28;20083;-59
2021/12/18 08:15:59;;;;;;;13.52;2.78;;;7.90;99.90;;;;;;5080365;28;20039;-59
2021/12/18 08:18:25;;;;;;;9.70;2.78;;;7.90;99.90;;;;;;5080650;28;20040;-58
2021/12/18 08:20:51;;;;;;;11.05;3.08;;;7.90;99.90;;;;;;5062276;28;20052;-60
2021/12/18 08:23:17;;;;;;;12.73;3.42;;;8.00;99.90;;;;;;5080451;28;20052;-59
2021/12/18 08:25:43;;;;;;;8.43;3.25;;;8.00;99.90;;;;;;5080639;28;20071;-59
2021/12/18 08:28:09;;;;;;;10.23;2.72;;;8.00;99.90;;;;;;5080161;28;20080;-60
2021/12/18 08:30:36;;;;;;;11.63;3.03;;;7.90;99.90;;;;;;5080642;28;20067;-59
2021/12/18 08:33:02;;;;;;;12.88;3.53;;;8.00;99.90;;;;;;5079907;28;20040;-59
2021/12/18 08:35:30;;;;;;;10.40;3.88;;;8.00;99.90;;;;;;5080391;28;20086;-59
2021/12/18 08:37:57;;;;;;;13.93;3.22;;;8.00;99.90;;;;;;5079745;28;20040;-59
2021/12/18 08:40:24;;;;;;;11.02;3.47;;;8.00;99.90;;;;;;5080102;28;20044;-59
2021/12/18 08:42:50;;;;;;;11.15;3.47;;;8.00;99.90;;;;;;5080330;28;20052;-59
2021/12/18 08:45:16;;;;;;;12.85;3.20;;;8.10;99.90;;;;;;5078639;28;20070;-59
2021/12/18 08:47:42;;;;;;;11.82;3.22;;;8.10;99.90;;;;;;5079063;28;20052;-59
2021/12/18 08:50:13;;;;;;;9.15;3.13;;;8.10;99.90;;;;;;5079979;28;20040;-59
2021/12/18 08:52:39;;;;;;;10.85;3.20;;;8.00;99.90;;;;;;5096060;28;20063;-59
2021/12/18 08:55:05;;;;;;;12.88;3.40;;;8.00;99.90;;;;;;5079903;28;20303;-59
2021/12/18 08:57:31;;;;;;;12.05;3.60;;;8.10;99.90;;;;;;5080023;28;20048;-59
2021/12/18 08:59:57;;;;;;;10.50;3.53;;;8.10;99.90;;;;;;5080491;28;20148;-59
2021/12/18 09:02:23;;;;;;;14.70;3.50;;;8.10;99.90;;;;;;5079589;28;20040;-59
2021/12/18 09:04:50;;;;;;;11.85;3.40;;;8.10;99.90;;;;;;5080228;28;20531;-59
2021/12/18 09:07:16;;;;;;;11.98;3.15;;;8.10;99.90;;;;;;5078081;28;20106;-59
2021/12/18 09:09:42;;;;;;;14.82;3.67;;;8.10;99.90;;;;;;5080027;28;20069;-59
2021/12/18 09:12:09;;;;;;;11.50;3.63;;;8.10;99.90;;;;;;5079069;28;20076;-59
2021/12/18 09:14:35;;;;;;;12.82;3.40;;;8.10;99.90;;;;;;5079363;28;20516;-59
2021/12/18 09:17:01;;;;;;;15.27;4.00;;;8.00;99.90;;;;;;5080059;28;20049;-59
2021/12/18 09:19:27;;;;;;;11.75;3.72;;;8.10;99.90;;;;;;5078120;28;20044;-59
2021/12/18 09:21:52;;;;;;;13.80;4.13;;;8.10;99.90;;;;;;5079780;28;20036;-59
2021/12/18 09:24:20;;;;;;;11.82;4.28;;;8.10;99.90;;;;;;5079265;28;20566;-59
2021/12/18 09:26:47;;;;;;;10.25;3.70;;;8.10;99.90;;;;;;5078341;28;20048;-58
2021/12/18 09:29:13;;;;;;;12.75;3.70;;;8.10;99.90;;;;;;5077650;28;20048;-58
2021/12/18 09:31:39;;;;;;;11.93;3.47;;;8.10;99.90;;;;;;5078350;28;20135;-59
2021/12/18 09:34:05;;;;;;;10.25;3.63;;;8.10;99.90;;;;;;5079540;28;20488;-58
2021/12/18 09:36:32;;;;;;;8.50;4.20;;;8.10;99.90;;;;;;5079439;28;20104;-58
2021/12/18 09:38:57;;;;;;;11.57;3.17;;;8.10;99.90;;;;;;5080011;28;20131;-59
2021/12/18 09:41:24;;;;;;;8.77;3.65;;;8.10;99.90;;;;;;5078988;28;20036;-59
2021/12/18 09:43:50;;;;;;;11.60;4.03;;;8.10;99.90;;;;;;5079145;28;20049;-59
2021/12/18 09:46:17;;;;;;;9.68;3.85;;;8.10;99.90;;;;;;5078462;28;20381;-58
2021/12/18 09:48:44;;;;;;;13.43;4.88;;;8.10;99.90;;;;;;5079120;28;20040;-59
2021/12/18 09:51:20;;;;;;;12.15;4.40;;;8.10;99.90;;;;;;5089041;28;20048;-58
2021/12/18 09:53:47;;;;;;;9.40;4.35;;;8.20;99.90;;;;;;5098246;28;20118;-58
2021/12/18 09:56:12;;;;;;;10.68;4.45;;;8.10;99.90;;;;;;5077784;28;20123;-58
2021/12/18 09:58:38;;;;;;;10.85;4.80;;;8.20;99.90;;;;;;5078428;28;20035;-57
2021/12/18 10:01:04;;;;;;;12.77;4.90;;;8.20;99.90;;;;;;5079125;28;20115;-58
2021/12/18 10:03:58;;;;;;;12.50;5.05;;;8.20;99.90;;;;;;5076858;28;20083;-59
2021/12/18 10:06:38;;;;;;;13.40;4.88;;;8.20;99.90;;;;;;5079104;28;20048;-59
2021/12/18 10:09:06;;;;;;;14.20;5.03;;;8.20;99.90;;;;;;5079454;28;20452;-58
2021/12/18 10:11:32;;;;;;;14.77;5.60;;;8.20;99.90;;;;;;5078617;28;20040;-59
2021/12/18 10:14:02;;;;;;;14.90;5.57;;;8.30;99.90;;;;;;5077597;28;20070;-59
2021/12/18 10:16:29;;;;;;;11.95;5.00;;;8.20;99.90;;;;;;5077234;28;20412;-58
2021/12/18 10:18:58;;;;;;;12.98;4.82;;;8.20;99.90;;;;;;5078640;28;20045;-59
2021/12/18 10:21:27;;;;;;;11.55;5.03;;;8.20;99.90;;;;;;5079132;28;20593;-59
2021/12/18 10:23:53;;;;;;;10.23;3.33;;;8.20;99.90;;;;;;5078752;28;20042;-58
2021/12/18 10:26:38;;;;;;;9.27;3.67;;;8.20;99.90;;;;;;5079053;28;20063;-59
2021/12/18 10:29:34;;;;;;;13.23;3.72;;;8.20;99.90;;;;;;5078421;28;20082;-59
2021/12/18 10:32:11;;;;;;;10.85;3.38;;;8.20;99.90;;;;;;5078591;28;20096;-59
2021/12/18 10:34:38;;;;;;;8.98;3.42;;;8.20;99.90;;;;;;5079046;28;20048;-58
2021/12/18 10:37:06;;;;;;;10.48;3.65;;;8.20;99.90;;;;;;5078424;28;20048;-58
2021/12/18 10:39:32;;;;;;;12.52;3.78;;;8.30;99.90;;;;;;5078851;28;20055;-59
2021/12/18 10:42:15;;;;;;;13.00;3.60;;;8.40;99.90;;;;;;5078252;28;20041;-58
2021/12/18 10:44:56;;;;;;;11.05;3.30;;;8.30;99.90;;;;;;5078417;28;20079;-58
2021/12/18 10:47:22;;;;;;;12.60;3.45;;;8.30;99.90;;;;;;5078967;28;20395;-59
2021/12/18 10:49:48;;;;;;;9.95;3.08;;;8.30;99.90;;;;;;5077977;28;20064;-59
2021/12/18 10:52:14;;;;;;;14.00;3.20;;;8.30;99.90;;;;;;5098028;28;20086;-59
2021/12/18 10:54:40;;;;;;;12.63;3.30;;;8.40;99.90;;;;;;5088666;28;20044;-58
2021/12/18 10:57:20;;;;;;;9.10;2.88;;;8.40;99.90;;;;;;5078514;28;20051;-59
2021/12/18 10:59:48;;;;;;;8.57;3.33;;;8.40;99.90;;;;;;5078357;28;20091;-58
2021/12/18 11:02:16;;;;;;;9.00;3.03;;;8.40;99.90;;;;;;5078016;28;20059;-59
2021/12/18 11:04:44;;;;;;;11.20;2.80;;;8.50;99.90;;;;;;5060898;28;20521;-59
2021/12/18 11:07:31;;;;;;;9.52;3.20;;;8.40;99.90;;;;;;5077697;28;20075;-58
2021/12/18 11:10:18;;;;;;;7.22;2.45;;;8.40;99.90;;;;;;5078308;28;20059;-59
2021/12/18 11:15:29;;;;;;;8.73;2.20;;;8.50;99.90;;;;;;5079146;28;20128;-59
2021/12/18 11:17:55;;;;;;;10.02;2.50;;;8.50;99.90;;;;;;5081388;28;20033;-59
2021/12/18 11:20:21;;;;;;;8.45;2.58;;;8.50;99.90;;;;;;5081570;28;20048;-59
2021/12/18 11:22:52;;;;;;;11.43;3.38;;;8.50;99.90;;;;;;5082095;28;20041;-59
2021/12/18 11:25:21;;;;;;;9.40;3.05;;;8.60;99.90;;;;;;5064175;28;20056;-58
2021/12/18 11:27:51;;;;;;;9.80;3.40;;;8.60;99.90;;;;;;5082020;28;20385;-58
2021/12/18 11:30:17;;;;;;;9.73;2.65;;;8.60;99.90;;;;;;5082428;28;20419;-59
2021/12/18 11:32:53;;;;;;;11.25;2.65;;;8.60;99.90;;;;;;5080035;28;20052;-59
2021/12/18 11:35:20;;;;;;;8.48;2.20;;;8.60;99.90;;;;;;5080732;28;20033;-59
2021/12/18 11:37:55;;;;;;;10.15;2.88;;;8.70;99.90;;;;;;5081507;28;20056;-59
2021/12/18 11:40:32;;;;;;;10.90;2.60;;;8.70;99.90;;;;;;5082113;28;20104;-59
2021/12/18 11:42:58;;;;;;;8.77;2.10;;;8.70;99.90;;;;;;5081760;28;20491;-59
2021/12/18 11:45:34;;;;;;;9.70;3.03;;;8.70;99.90;;;;;;5081515;28;20124;-59
2021/12/18 11:48:00;;;;;;;10.90;2.40;;;8.70;99.90;;;;;;5081894;28;20123;-60
2021/12/18 11:50:38;;;;;;;14.93;3.20;;;8.70;99.90;;;;;;5083908;28;20645;-59
2021/12/18 11:53:07;;;;;;;9.70;3.03;;;8.70;99.90;;;;;;5101997;28;20040;-59
2021/12/18 11:55:51;;;;;;;11.50;2.83;;;8.70;99.90;;;;;;5086511;28;20037;-59
2021/12/18 11:58:27;;;;;;;11.18;2.55;;;8.70;99.90;;;;;;5081132;28;20943;-59
2021/12/18 12:01:00;;;;;;;10.93;3.20;;;8.60;99.90;;;;;;5081312;28;20104;-59
2021/12/18 12:03:28;;;;;;;;;;;8.70;99.90;;;;;;5080033;28;20064;-60
2021/12/18 12:05:56;;;;;;;14.90;3.15;;;8.70;99.90;;;;;;5081138;28;19967;-59
2021/12/18 12:08:38;;;;;;;12.98;3.70;;;8.70;99.90;;;;;;5080061;28;20079;-59
2021/12/18 12:11:15;;;;;;;;;;;8.70;99.90;;;;;;5081429;28;20082;-59
2021/12/18 12:14:03;;;;;;;9.60;2.60;;;8.70;99.90;;;;;;5081163;28;19931;-59
2021/12/18 12:16:44;;;;;;;14.93;2.72;;;8.60;99.90;;;;;;5079465;28;20136;-59
2021/12/18 12:19:22;;;;;;;10.65;2.50;;;8.60;99.90;;;;;;5081100;28;20776;-59
2021/12/18 12:21:57;;;;;;;12.27;3.05;;;8.60;99.90;;;;;;5081460;28;20041;-59
2021/12/18 12:24:26;;;;;;;12.35;3.38;;;8.70;99.90;;;;;;5079438;28;20048;-59
2021/12/18 12:26:53;;;;;;;11.40;2.55;;;8.70;99.90;;;;;;5078560;28;20056;-59
2021/12/18 12:29:22;;;;;;;9.68;2.90;;;8.70;99.90;;;;;;5079271;28;20051;-59
2021/12/18 12:32:01;;;;;;;11.27;3.50;;;8.70;99.90;;;;;;5079268;28;20040;-59
2021/12/18 12:34:34;;;;;;;9.25;2.20;;;8.60;99.90;;;;;;5080905;28;20420;-59
2021/12/18 12:37:28;;;;;;;13.27;2.88;;;8.70;99.90;;;;;;5079778;28;20056;-59
2021/12/18 12:40:02;;;;;;;13.00;3.67;;;8.70;99.90;;;;;;5078962;28;20401;-60
2021/12/18 12:42:28;;;;;;;9.75;2.17;;;8.70;99.90;;;;;;5079059;28;20081;-59
2021/12/18 12:45:15;;;;;;;9.48;2.45;;;8.60;99.90;;;;;;5079261;28;20045;-60
2021/12/18 12:47:53;;;;;;;9.27;2.63;;;8.60;99.90;;;;;;5079406;28;20396;-60
2021/12/18 12:50:19;;;;;;;11.07;2.95;;;8.60;99.90;;;;;;5082120;28;20055;-58
2021/12/18 12:53:03;;;;;;;13.82;3.03;;;8.60;99.90;;;;;;5098428;28;20044;-60
2021/12/18 12:55:38;;;;;;;9.60;2.28;;;8.60;99.90;;;;;;5083270;28;20504;-59
2021/12/18 12:58:14;;;;;;;10.77;2.78;;;8.50;99.90;;;;;;5078726;28;20052;-59
2021/12/18 13:00:41;;;;;;;9.85;2.70;;;8.60;99.90;;;;;;5079801;28;20057;-59
2021/12/18 13:03:18;;;;;;;12.20;2.38;;;8.60;99.90;;;;;;5078081;28;20044;-59
2021/12/18 13:05:52;;;;;;;8.73;2.30;;;8.60;99.90;;;;;;5079724;28;20506;-59
2021/12/18 13:08:18;;;;;;;9.98;2.13;;;8.60;99.90;;;;;;5078504;28;20045;-59
2021/12/18 13:10:47;;;;;;;9.95;2.78;;;8.50;99.90;;;;;;5079238;28;20076;-59
2021/12/18 13:13:17;;;;;;;10.07;2.42;;;8.50;99.90;;;;;;5079638;28;20044;-59
2021/12/18 13:15:47;;;;;;;10.70;2.45;;;8.50;99.90;;;;;;5079075;28;20105;-59
2021/12/18 13:18:13;;;;;;;11.50;3.10;;;8.50;99.90;;;;;;5087554;28;20047;-60
2021/12/18 13:20:50;;;;;;;10.55;2.45;;;8.50;99.90;;;;;;5088110;28;20361;-60
2021/12/18 13:23:20;;;;;;;13.05;2.85;;;8.50;99.90;;;;;;5085876;28;20055;-60
2021/12/18 13:25:52;;;;;;;11.32;2.67;;;8.40;99.90;;;;;;5087288;28;20055;-59
2021/12/18 13:28:18;;;;;;;12.60;2.67;;;8.50;99.90;;;;;;5088792;28;20058;-60
2021/12/18 13:30:47;;;;;;;9.90;2.45;;;8.50;99.90;;;;;;5080239;28;20045;-59
2021/12/18 13:33:13;;;;;;;10.60;2.38;;;8.40;99.90;;;;;;5078706;28;20053;-59
2021/12/18 13:35:40;;;;;;;12.90;2.10;;;8.40;99.90;;;;;;5077970;28;20049;-59